Memory Alpha
Advertisement
Memory Alpha
Star Trek: Voyager
Skrótowa nazwa: VOY, VGR
Polski tytuł: Star Trek: Voyager
Pomysł serii: Rick Berman,

Michael Piller,
Jeri Taylor

Studio: Paramount Pictures
Daty produkcji: 1995-2001
Odcinki: 172 (7 sezonów)
Przedział czasowy: 2371-2378
The USS Voyager
VOYcrew7.jpg

'Star Trek: Voyager' jest czwartym serialem telewizyjnym Star Trek. Został stworzony przez Ricka Bermana, Michaela Pillera i Jeri Taylor, i pierwotnie nadawany w sieci UPN w latach 1995 - 2001

Streszczenie[]

Serial opowiada o przygodach załogi statku USS Voyager , przeniesionego przez obcą istotę znaną jako Opiekun do Kwadrantu Delta. Opiekun ginie, zanim może odesłać Voyagera, z powrotem. Załoga, uwięziona w kwadrancie delta musi podjąć podróż do domu, która przy użyciu znanych im technologii zajęła by ponad 70 lat

Obsada[]

Zespół produkcujny[]

  • Rick Berman - Kierownik produkcji
  • Michael Piller - Kierownik produkcji (1995-1996)
  • Jeri Taylor - Kierownik produkcji (1995-1998)
  • Brannon Braga - Kierownik produkcji (1998-2000)
  • Kenneth Biller - Kierownik produkcji (2000-2001)

Lista odcinków[]

Sezon 1[]

Sezon 1, 16 odcinków

Tytuł Odcinek Data gwiezdna Data Pierwszej Emisji
Caretaker 1x01/02 48315.6 1995-01-16
Parallax 1x03 48439.7 1995-01-23
Time and Again 1x04 nieznana 1995-01-30
Phage 1x05 48532.4 1995-02-06
The Cloud 1x06 48546.2 1995-02-13
Eye of the Needle 1x07 48579.4 1995-02-20
Ex Post Facto 1x08 nieznana 1995-02-27
Emanations 1x09 48623.5 1995-03-13
Prime Factors 1x10 48642.5 1995-03-20
State of Flux 1x11 48658.2 1995-04-10
Heroes and Demons 1x12 48693.2 1995-04-24
Cathexis 1x13 48734.2 1995-05-01
Faces 1x14 48784.2 1995-05-08
Jetrel 1x15 48832.1 1995-05-15
Learning Curve 1x16 48846.5 1995-05-22

Sezon 2[]

Sezon 2, 26 odcinków

Tytuł Odcinek Data gwiezdna Data Pierwszej Emisji
The 37's 2x01 48975.1 1995-08-28
Initiations 2x02 49005.3 1995-09-04
Projections 2x03 48892.1 1995-09-11
Elogium 2x04 48921.3 1995-09-18
Non Sequitur 2x05 49011.0 1995-09-25
Twisted 2x06 nieznana 1995-10-02
Parturition 2x07 49068.5 1995-10-09
Persistence of Vision 2x08 nieznana 1995-10-30
Tattoo 2x09 nieznana 1995-11-06
Cold Fire 2x10 nieznana 1995-11-13
Maneuvers 2x11 48423 1995-11-20
Resistance 2x12 nieznana 1995-11-27
Prototype 2x13 nieznana 1996-01-15
Alliances 2x14 49337.4 1996-01-22
Threshold 2x15 49373.4 1996-01-29
Meld 2x16 unknown 1996-02-05
Dreadnought 2x17 49447.0 1996-02-12
Death Wish 2x18 49301.2 1996-02-19
Lifesigns 2x19 49504.3 1996-02-26
Investigations 2x20 49485.2 1996-03-13
Deadlock 2x21 49548.7 1996-03-18
Innocence 2x22 49578.2 1996-04-08
The Thaw 2x23 nieznana 1996-04-29
Tuvix 2x24 49655.2 1996-05-06
Resolutions 2x25 49690.1 1996-05-13
Basics, Part I 2x26 nieznana 1996-05-20

Sezon 3[]

Sezon 3, 26 odcinków

Tytuł Odcinek Data gwiezdna Data Pierwszej Emisji
Basics, Part 2 3x01 50023.4 1996-09-04
Flashback 3x02 50126.4 1996-09-11
The Chute 3x03 50156.2 1996-09-18
The Swarm 3x04 50252.3 1996-09-25
False Profits 3x05 50074.3 1996-10-02
Remember 3x06 50203.1 1996-10-09
Sacred Ground 3x07 50063.2 1996-10-30
Future's End, Part 1 3x08 nieznana 1996-11-06
Future's End, Part 2 3x09 50312.5 1996-11-13
Warlord 3x10 50348.1 1996-11-20
The Q and the Grey 3x11 50384.2 1996-11-27
Macrocosm 3x12 50425.1 1996-12-11
Fair Trade 3x13 nieznana 1997-01-08
Alter Ego 3x14 50460.3 1997-01-15
Coda 3x15 50518.6 1997-01-29
Blood Fever 3x16 50537.2 1997-02-05
Unity 3x17 50614.2 1997-02-12
Darkling 3x18 50693.2 1997-02-19
Rise 3x19 nieznana 1997-02-26
Favorite Son 3x20 50732.4 1997-03-19
Before and After 3x21 50973.0 1997-04-09
Real Life 3x22 50863.2 1997-04-23
Distant Origin 3x23 nieznana 1997-04-30
Displaced 3x24 50912.4 1997-05-07
Worst Case Scenario 3x25 50953.4 1997-05-14
Scorpion, Part 1 3x26 50984.3 1997-05-21

Sezon 4[]

Sezon 4, 26 odcinków

Tytuł Odcinek Data gwiezdna Data Pierwszej Emisji
Scorpion, Part 2 4x01 51003.7 1997-09-03
The Gift 4x02 51008,0 1997-09-10
Day of Honor 4x03 nieznana 1997-09-17
Nemesis 4x04 51082.4 1997-09-24
Revulsion 4x05 51186.2 1997-10-01
The Raven 4x06 nieznana 1997-10-08
Scientific Method 4x07 51244.3 1997-10-29
Year of Hell, Part 1 4x08 51268.4 1997-11-05
Year of Hell, Part 2 4x09 51425.4 1997-11-12
Random Thoughts 4x10 51367.2 1997-11-19
Concernig Flight 4x11 51386.4 1997-11-26
Mortal Coil 4x12 51449.2 1997-12-17
Waking Moments 4x13 51471.3 1998-01-14
Message in a Bottle 4x14 51462,0 1998-01-21
Hunters 4x15 51501.4 1998-02-11
Prey 4x16 51652.3 1998-02-18
Retrospect 4x17 51658.2 1998-02-25
The Killing Game, Part 1 4x18 nieznana 1998-03-04
The Killing Game, Part 2 4x19 51715.2 1998-03-04
Vis a Vis 4x20 51762.4 1998-04-08
The Omega Directive 4x21 51781.2 1998-04-15
Unforgettable 4x22 51813.4 1998-04-22
Living Witness 4x23 nieznana 1998-04-29
Demon 4x24 nieznana 1998-05-06
One 4x25 51929.3 1998-05-13
Hope adn Fear 4x26 51978.2 1998-05-30

Sezon 5[]

Sezon 5, 26 odcinków

Tytuł Odcinek Data gwiezdna Data Pierwszej Emisji
Night 5x01 52081.2 1998-10-14
Drone 5x02 nieznana 1998-10-21
Extreme Risk 5x03 nieznana 1998-10-28
In the Flesh 5x04 52136.4 1998-11-04
Once Upon a Time 5x05 nieznana 1998-11-11
Timeless 5x06 52143.6 1998-11-18
Infinite Regress 5x07 52188.7 1998-11-25
Nothing Human 5x08 nieznana 1998-12-02
Thirty Days 5x09 52179.4 1998-12-09
Counterpoint 5x10 nieznana 1998-12-16
Latent Image 5x11 nieznana 1999-01-20
Bride of Chaotica! 5x12 nieznana 1999-01-27
Gravity 5x13 52438.9 1999-02-03
Bliss 5x14 52542.3 1999-02-10
Dark Frontier, Part 1 5x15 52619.2 1999-02-17
Dark Frontier, Part 2 5x16 52619.2 1999-02-17
The Disease 5x17 nieznana 1999-02-24
Course: Oblivion 5x18 52586.3 1999-03-03
The Fight 5x19 nieznana 1999-03-24
Think Tank 5x20 nieznana 1999-03-31
Juggernaut 5x21 nieznana 1999-04-26
Someone to Watch Over Me 5x22 52647,0 1999-04-28
11:59 5x23 nieznana 1999-05-05
Relativity 5x24 52861.274 1999-05-12
Warhead 5x25 nieznana 1999-05-19
Equinox, Part 1 5x26 nieznana 1999-05-26

Sezon 6[]

Sezon 6, 26 odcinków

Tytuł Odcinek Data gwiezdna Data Pierwszej Emisji
Equinox, Part 2 6x01 nieznana 1999-09-22
Survival Instinct 6x02 53049.2 1999-09-29
Barge of the Dead 6x03 nieznana 1999-10-06
Tinker, Tenor, Doctor, Spy 6x04 nieznana 1999-10-13
Alice 6x05 nieznana 1999-10-20
Riddles 6x06 53263.2 1999-11-03
Dragon's Teeth 6x07 53167.9 1999-11-10
One Small Step 6x08 53292.7 1999-11-17
The Voyager Conspiracy 6x09 nieznana 1999-11-24
Pathfinder 6x10 nieznana 1999-12-01
Fair heaven 6x11 nieznana 2000-01-12
Blink of an Eye 6x12 nieznana 2000-01-19
Virtuoso 6x13 53556.4 2000-01-26
Memorial 6x14 nieznana 2000-02-02
Tsunkatse 6x15 53447.2 2000-02-09
Collective 6x16 nieznana 2000-02-16
Spirit Folk 6x17 nieznana 2000-02-23
Ashes to Ashes 6x18 53679.4 2000-03-01
Child's Play 6x19 nieznana 2000-03-08
Good Shepherd 6x20 53753.2 2000-03-15
Live Fast and Prosper 6x21 53849.2 2000-04-19
Muse 6x22 53896,0 2000-04-26
Fury 6x23 nieznana 2000-05-03
Life Line 6x24 nieznana 2000-05-10
The Haunting of Deck Twelve 6x25 nieznana 2000-05-17
Unimatrix Zero, Part 1 6x26 nieznana 2000-05-24

Sezon 7[]

Sezon 7, 26 odcinków

Tytuł Odcinek Data gwiezdna Data Pierwszej Emisji
Unimatrix Zero, Part 2 7x01 54014.4 2000-10-04
Imperfection 7x02 54129.4 2000-10-11
Drive 7x03 54058.6 2000-10-18
Repression 7x04 54090.4 2000-10-25
Critical Care 7x05 nieznana 2000-11-01
Inside Man 7x06 54208.3 2000-11-08
Body and Soul 7x07 54238.3 2000-11-15
Nihtingale 7x08 54274.7 2000-11-22
Flesh and Blood, Part 1 7x09 nieznana 2000-11-29
Flesh and Blood, Part 2 7x10 54337.5 2000-11-29
Shattered 7x11 nieznana 2001-01-17
Lineage 7x12 54452.6 2001-01-24
Repentance 7x13 54474.6 2001-01-31
Prophecy 7x14 54518.2 2001-02-07
The Void 7x15 54553.4 2001-02-14
Workforce, Part 1 7x16 54584.3 2001-02-21
Workforce, Part 2 7x17 54622.4 2001-02-28
Human Error 7x18 nieznana 2001-03-07
Q2 7x19 54704.5 2001-04-11
Author, Author 7x20 54732.3 2001-04-18
Friendship One 7x21 54775.4 2001-04-25
Natural Law 7x22 54827.7 2001-05-02
Homestead 7x23 54868.6 2001-05-09
Renaissance Man 7x24 54890.7 2001-05-16
Endgame, Part 1 7x25 nieznana 2001-05-23
Endgame, Part 2 7x26 54973.4 2001-05-23
Advertisement